createdAt,value
2023-02-23T00:00:22.460Z,84.01
2023-02-23T00:01:25.820Z,84.03
2023-02-23T00:02:28.557Z,83.87
2023-02-23T00:03:30.433Z,83.90
2023-02-23T00:04:33.574Z,83.99
2023-02-23T00:05:37.446Z,84.09
2023-02-23T00:06:40.884Z,83.76
2023-02-23T00:07:43.909Z,83.84
2023-02-23T00:08:47.872Z,83.77
2023-02-23T00:09:50.824Z,83.54
2023-02-23T00:10:58.432Z,83.71
2023-02-23T00:12:00.494Z,83.70
2023-02-23T00:13:04.934Z,83.47
2023-02-23T00:14:08.227Z,83.31
2023-02-23T00:15:11.828Z,83.61
2023-02-23T00:16:15.226Z,83.54
2023-02-23T00:17:18.137Z,83.22
2023-02-23T00:18:20.959Z,83.37
2023-02-23T00:19:24.732Z,83.39
2023-02-23T00:20:27.652Z,83.35
2023-02-23T00:21:32.952Z,83.23
2023-02-23T00:22:34.986Z,82.95
2023-02-23T00:23:38.700Z,83.17
2023-02-23T00:24:42.288Z,83.24
2023-02-23T00:26:05.094Z,83.29
2023-02-23T00:27:07.297Z,83.09
2023-02-23T00:28:10.170Z,82.79
2023-02-23T00:29:17.113Z,82.87
2023-02-23T00:30:21.099Z,82.94
2023-02-23T00:31:25.948Z,82.68
2023-02-23T00:32:28.859Z,82.79
2023-02-23T00:33:31.343Z,82.82
2023-02-23T00:34:35.719Z,82.97
2023-02-23T00:35:38.809Z,82.83
2023-02-23T00:36:44.387Z,82.87
2023-02-23T00:37:49.155Z,82.80
2023-02-23T00:38:54.370Z,82.76
2023-02-23T00:39:56.853Z,82.64
2023-02-23T00:40:59.581Z,82.71
2023-02-23T00:42:03.591Z,82.60
2023-02-23T00:43:06.566Z,82.58
2023-02-23T00:44:08.429Z,82.42
2023-02-23T00:45:12.573Z,82.71
2023-02-23T00:46:16.490Z,82.42
2023-02-23T00:47:19.853Z,82.53
2023-02-23T00:48:24.497Z,82.51
2023-02-23T00:49:27.631Z,82.37
2023-02-23T00:50:29.803Z,82.44
2023-02-23T00:51:32.891Z,82.60
2023-02-23T00:52:36.341Z,82.58
2023-02-23T00:53:39.193Z,82.28
2023-02-23T00:54:41.763Z,82.46
2023-02-23T00:55:44.577Z,82.46
2023-02-23T00:56:46.447Z,82.54
2023-02-23T00:57:49.237Z,82.59
2023-02-23T00:58:53.330Z,82.38
2023-02-23T00:59:56.208Z,82.65
2023-02-23T01:01:00.837Z,82.45
2023-02-23T01:02:03.719Z,82.46
2023-02-23T01:03:05.534Z,82.62
2023-02-23T01:04:08.663Z,82.21
2023-02-23T01:05:11.504Z,82.52
2023-02-23T01:06:15.850Z,82.53
2023-02-23T01:07:17.621Z,82.31
2023-02-23T01:08:22.324Z,82.24
2023-02-23T01:09:27.851Z,82.60
2023-02-23T01:10:31.025Z,82.62
2023-02-23T01:11:32.918Z,82.69
2023-02-23T01:12:35.649Z,82.49
2023-02-23T01:13:37.852Z,82.82
2023-02-23T01:14:42.430Z,82.66
2023-02-23T01:15:48.124Z,82.76
2023-02-23T01:16:50.925Z,82.96
2023-02-23T01:17:52.817Z,82.57
2023-02-23T01:18:56.634Z,82.57
2023-02-23T01:19:59.991Z,82.55
2023-02-23T01:21:03.082Z,82.66
2023-02-23T01:22:05.064Z,82.48
2023-02-23T01:23:08.153Z,82.43
2023-02-23T01:24:12.764Z,82.44
2023-02-23T01:25:16.442Z,82.66
2023-02-23T01:26:19.215Z,82.39
2023-02-23T01:27:22.003Z,82.58
2023-02-23T01:28:23.920Z,82.51
2023-02-23T01:29:26.681Z,82.55
2023-02-23T01:30:29.479Z,82.30
2023-02-23T01:31:32.520Z,82.40
2023-02-23T01:32:35.034Z,82.44
2023-02-23T01:33:57.099Z,82.46
2023-02-23T01:34:59.012Z,82.41
2023-02-23T01:36:02.065Z,82.44
2023-02-23T01:37:04.139Z,82.53
2023-02-23T01:38:08.388Z,82.13
2023-02-23T01:39:14.106Z,82.41
2023-02-23T01:40:28.672Z,82.43
2023-02-23T01:41:32.984Z,82.32
2023-02-23T01:42:39.117Z,82.48
2023-02-23T01:43:56.138Z,82.55
2023-02-23T01:45:24.632Z,82.49
2023-02-23T01:46:27.795Z,82.45
2023-02-23T01:47:30.318Z,82.74
2023-02-23T01:48:37.301Z,82.62
2023-02-23T01:49:40.253Z,82.43
2023-02-23T01:50:47.288Z,82.35
2023-02-23T01:51:59.788Z,82.43
2023-02-23T01:53:04.909Z,82.58
2023-02-23T01:54:10.764Z,82.61
2023-02-23T01:55:23.069Z,82.53
2023-02-23T01:56:27.241Z,82.59
2023-02-23T01:57:30.267Z,82.52
2023-02-23T01:58:33.771Z,82.54
2023-02-23T01:59:40.258Z,82.63
2023-02-23T02:00:48.240Z,82.72
2023-02-23T02:01:51.052Z,82.63
2023-02-23T02:02:53.081Z,82.59
2023-02-23T02:03:57.989Z,82.36
2023-02-23T02:05:00.368Z,82.75
2023-02-23T02:06:06.028Z,82.75
2023-02-23T02:07:08.380Z,82.48
2023-02-23T02:08:11.758Z,82.61
2023-02-23T02:09:17.308Z,82.81
2023-02-23T02:10:39.622Z,82.59
2023-02-23T02:11:44.620Z,82.76
2023-02-23T02:12:51.922Z,82.80
2023-02-23T02:13:55.590Z,82.64
2023-02-23T02:14:59.584Z,82.59
2023-02-23T02:16:13.789Z,82.75
2023-02-23T02:17:27.228Z,82.77
2023-02-23T02:18:38.130Z,82.80
2023-02-23T02:20:06.652Z,82.66
2023-02-23T02:21:23.610Z,82.97
2023-02-23T02:22:48.204Z,83.08
2023-02-23T02:24:02.441Z,83.25
2023-02-23T02:25:24.570Z,83.25
2023-02-23T02:26:34.230Z,83.09
2023-02-23T02:27:50.671Z,83.03
2023-02-23T02:29:19.809Z,83.36
2023-02-23T02:30:46.165Z,83.53
2023-02-23T02:32:17.483Z,83.27
2023-02-23T02:33:34.879Z,83.65
2023-02-23T02:35:03.104Z,83.51
2023-02-23T02:36:33.058Z,83.32
2023-02-23T02:37:47.712Z,83.49
2023-02-23T02:38:54.065Z,83.93
2023-02-23T02:40:15.944Z,83.38
2023-02-23T02:41:21.142Z,83.58
2023-02-23T02:42:31.024Z,83.44
2023-02-23T02:43:38.717Z,83.80
2023-02-23T02:44:50.662Z,84.18
2023-02-23T02:45:55.832Z,83.85
2023-02-23T02:47:02.202Z,84.10
2023-02-23T02:48:08.605Z,84.05
2023-02-23T02:49:17.471Z,84.17
2023-02-23T02:50:22.606Z,83.95
2023-02-23T02:51:28.572Z,84.30
2023-02-23T02:52:35.684Z,84.06
2023-02-23T02:53:45.338Z,83.85
2023-02-23T02:54:49.382Z,84.10
2023-02-23T02:55:52.869Z,84.14
2023-02-23T02:56:57.680Z,84.00
2023-02-23T02:58:03.591Z,84.01
2023-02-23T02:59:06.307Z,83.98
2023-02-23T03:00:30.784Z,83.92
2023-02-23T03:01:51.190Z,83.99
2023-02-23T03:03:11.545Z,84.04
2023-02-23T03:04:39.977Z,83.98
2023-02-23T03:06:04.350Z,84.37
2023-02-23T03:07:29.619Z,84.46
2023-02-23T03:08:56.170Z,84.67
2023-02-23T03:10:22.635Z,84.53
2023-02-23T03:11:44.115Z,84.23
2023-02-23T03:13:15.894Z,84.42
2023-02-23T03:14:43.541Z,84.34
2023-02-23T03:16:14.254Z,84.18
2023-02-23T03:17:46.519Z,84.26
2023-02-23T03:19:19.151Z,84.21
2023-02-23T03:20:44.804Z,84.42
2023-02-23T03:22:09.217Z,84.46
2023-02-23T03:23:36.326Z,84.40
2023-02-23T03:25:00.580Z,84.34
2023-02-23T03:26:25.079Z,84.41
2023-02-23T03:28:01.340Z,84.64
2023-02-23T03:29:26.230Z,84.50
2023-02-23T03:30:56.269Z,84.36
2023-02-23T03:32:22.646Z,84.42
2023-02-23T03:33:48.836Z,84.48
2023-02-23T03:35:13.528Z,84.48
2023-02-23T03:36:38.204Z,84.54
2023-02-23T03:38:00.981Z,84.56
2023-02-23T03:39:24.319Z,84.89
2023-02-23T03:40:46.524Z,84.66
2023-02-23T03:42:09.497Z,84.57
2023-02-23T03:43:32.797Z,84.39
2023-02-23T03:45:00.005Z,84.40
2023-02-23T03:46:21.761Z,84.84
2023-02-23T03:47:44.085Z,84.94
2023-02-23T03:49:06.845Z,84.87
2023-02-23T03:50:30.682Z,84.62
2023-02-23T03:51:53.298Z,84.73
2023-02-23T03:53:16.633Z,84.66
2023-02-23T03:54:39.797Z,84.41
2023-02-23T03:56:02.538Z,84.71
2023-02-23T03:57:26.904Z,84.69
2023-02-23T03:58:50.552Z,84.89
2023-02-23T04:00:13.742Z,84.88
2023-02-23T04:01:34.933Z,84.74
2023-02-23T04:02:56.143Z,84.98
2023-02-23T04:04:16.792Z,84.77
2023-02-23T04:05:38.393Z,84.46
2023-02-23T04:07:02.582Z,84.90
2023-02-23T04:08:26.724Z,84.68
2023-02-23T04:09:47.649Z,84.88
2023-02-23T04:11:12.446Z,84.83
2023-02-23T04:12:40.650Z,84.86
2023-02-23T04:13:44.400Z,85.24
2023-02-23T04:14:54.078Z,84.97
2023-02-23T04:15:57.750Z,84.89
2023-02-23T04:16:59.652Z,84.95
2023-02-23T04:18:04.669Z,84.88
2023-02-23T04:19:06.548Z,84.93
2023-02-23T04:20:12.140Z,84.89
2023-02-23T04:21:14.030Z,84.89
2023-02-23T04:22:16.859Z,85.07
2023-02-23T04:23:40.678Z,85.02
2023-02-23T04:24:42.554Z,85.06
2023-02-23T04:25:45.416Z,84.82
2023-02-23T04:26:47.156Z,84.88
2023-02-23T04:27:51.812Z,85.29
2023-02-23T04:28:53.951Z,84.73
2023-02-23T04:29:56.825Z,84.86
2023-02-23T04:31:00.421Z,85.03
2023-02-23T04:32:02.346Z,85.05
2023-02-23T04:33:05.263Z,85.11
2023-02-23T04:34:07.134Z,85.45
2023-02-23T04:35:11.141Z,85.08
2023-02-23T04:36:13.062Z,85.15
2023-02-23T04:37:17.084Z,85.03
2023-02-23T04:38:18.852Z,84.84
2023-02-23T04:39:21.615Z,85.24
2023-02-23T04:40:24.449Z,84.87
2023-02-23T04:41:27.239Z,85.15
2023-02-23T04:42:29.579Z,84.90
2023-02-23T04:43:33.938Z,85.19
2023-02-23T04:44:35.737Z,85.19
2023-02-23T04:45:38.661Z,84.93
2023-02-23T04:46:41.385Z,85.16
2023-02-23T04:47:44.702Z,84.91
2023-02-23T04:48:46.536Z,85.04
2023-02-23T04:49:49.332Z,84.86
2023-02-23T04:50:52.671Z,85.07
2023-02-23T04:51:55.750Z,85.16
2023-02-23T04:52:57.616Z,85.16
2023-02-23T04:54:00.426Z,85.21
2023-02-23T04:55:03.182Z,85.28
2023-02-23T04:56:07.072Z,85.16
2023-02-23T04:57:09.565Z,85.52
2023-02-23T04:58:13.727Z,85.50
2023-02-23T04:59:17.086Z,85.20
2023-02-23T05:00:20.457Z,85.13
2023-02-23T05:01:22.616Z,84.89
2023-02-23T05:02:25.733Z,85.00
2023-02-23T05:03:27.535Z,85.12
2023-02-23T05:04:30.311Z,85.15
2023-02-23T05:05:32.636Z,85.19
2023-02-23T05:06:35.758Z,84.91
2023-02-23T05:07:38.238Z,85.17
2023-02-23T05:08:41.160Z,85.04
2023-02-23T05:09:42.971Z,84.93
2023-02-23T05:10:47.392Z,84.98
2023-02-23T05:12:09.668Z,84.92
2023-02-23T05:13:11.518Z,84.72
2023-02-23T05:14:15.138Z,85.12
2023-02-23T05:15:18.559Z,85.05
2023-02-23T05:16:21.393Z,85.30
2023-02-23T05:17:23.278Z,85.02
2023-02-23T05:18:26.358Z,85.03
2023-02-23T05:19:28.767Z,85.45
2023-02-23T05:20:31.492Z,85.03
2023-02-23T05:21:33.320Z,85.36
2023-02-23T05:22:36.635Z,85.29
2023-02-23T05:23:38.744Z,85.22
2023-02-23T05:24:41.551Z,85.20
2023-02-23T05:25:43.365Z,85.85
2023-02-23T05:26:46.370Z,85.50
2023-02-23T05:27:48.189Z,85.38
2023-02-23T05:28:51.381Z,85.35
2023-02-23T05:29:53.162Z,85.41
2023-02-23T05:30:57.399Z,85.49
2023-02-23T05:31:59.381Z,85.39
2023-02-23T05:33:02.159Z,85.61
2023-02-23T05:34:04.220Z,85.10
2023-02-23T05:35:08.928Z,85.11
2023-02-23T05:36:11.782Z,85.18
2023-02-23T05:37:14.538Z,85.28
2023-02-23T05:38:16.652Z,85.42
2023-02-23T05:39:19.409Z,85.46
2023-02-23T05:40:21.253Z,85.37
2023-02-23T05:41:24.679Z,85.33
2023-02-23T05:42:26.533Z,85.33
2023-02-23T05:43:29.256Z,85.34
2023-02-23T05:44:31.092Z,85.77
2023-02-23T05:45:34.252Z,85.56
2023-02-23T05:46:37.453Z,85.30
2023-02-23T05:47:40.254Z,85.21
2023-02-23T05:48:43.273Z,85.69
2023-02-23T05:49:46.714Z,85.68
2023-02-23T05:50:48.567Z,85.57
2023-02-23T05:51:51.952Z,85.87
2023-02-23T05:52:54.113Z,85.91
2023-02-23T05:53:57.073Z,85.60
2023-02-23T05:54:58.988Z,85.95
2023-02-23T05:56:02.818Z,85.66
2023-02-23T05:57:04.698Z,85.78
2023-02-23T05:58:07.474Z,85.62
2023-02-23T05:59:09.546Z,85.79
2023-02-23T06:00:14.270Z,86.20
2023-02-23T06:01:17.764Z,86.05
2023-02-23T06:02:22.473Z,86.04
2023-02-23T06:03:25.166Z,86.13
2023-02-23T06:04:27.920Z,86.14
2023-02-23T06:05:29.945Z,86.08
2023-02-23T06:06:32.733Z,86.23
2023-02-23T06:07:34.617Z,85.95
2023-02-23T06:08:37.393Z,85.83
2023-02-23T06:09:39.298Z,86.04
2023-02-23T06:10:42.048Z,86.42
2023-02-23T06:11:44.570Z,86.29
2023-02-23T06:12:47.614Z,86.26
2023-02-23T06:13:49.782Z,86.43
2023-02-23T06:14:52.938Z,86.48
2023-02-23T06:15:55.548Z,86.75
2023-02-23T06:17:00.235Z,86.89
2023-02-23T06:18:03.686Z,86.99
2023-02-23T06:19:06.705Z,87.01
2023-02-23T06:20:10.262Z,87.22
2023-02-23T06:21:13.028Z,87.26
2023-02-23T06:22:17.421Z,87.48
2023-02-23T06:23:20.222Z,87.53
2023-02-23T06:24:23.562Z,87.69
2023-02-23T06:25:25.801Z,87.80
2023-02-23T06:26:28.809Z,87.88
2023-02-23T06:27:30.947Z,87.92
2023-02-23T06:28:34.250Z,88.00
2023-02-23T06:29:37.228Z,87.91
2023-02-23T06:30:40.757Z,88.31
2023-02-23T06:31:43.468Z,88.21
2023-02-23T06:32:46.265Z,88.53
2023-02-23T06:33:53.396Z,88.69
2023-02-23T06:34:56.317Z,88.57
2023-02-23T06:36:00.581Z,88.52
2023-02-23T06:37:02.380Z,88.76
2023-02-23T06:38:06.278Z,89.02
2023-02-23T06:39:09.128Z,88.97
2023-02-23T06:40:11.852Z,88.87
2023-02-23T06:41:14.654Z,88.86
2023-02-23T06:42:16.432Z,88.84
2023-02-23T06:43:19.215Z,88.77
2023-02-23T06:44:22.157Z,88.80
2023-02-23T06:45:25.061Z,88.95
2023-02-23T06:46:26.898Z,88.94
2023-02-23T06:47:29.705Z,88.84
2023-02-23T06:48:32.509Z,89.01
2023-02-23T06:49:35.643Z,89.07
2023-02-23T06:50:38.508Z,88.99
2023-02-23T06:51:40.369Z,89.07
2023-02-23T06:52:43.192Z,89.01
2023-02-23T06:53:45.385Z,88.73
2023-02-23T06:54:48.256Z,89.20
2023-02-23T06:55:50.000Z,89.19
2023-02-23T06:56:53.318Z,89.38
2023-02-23T06:57:55.132Z,89.29
2023-02-23T06:58:57.834Z,89.09
2023-02-23T07:00:01.618Z,88.96
2023-02-23T07:01:04.395Z,88.51
2023-02-23T07:02:07.625Z,88.37
2023-02-23T07:03:09.806Z,88.23
2023-02-23T07:04:14.861Z,88.46
2023-02-23T07:05:19.619Z,88.12
2023-02-23T07:06:22.450Z,88.42
2023-02-23T07:07:24.345Z,88.16
2023-02-23T07:08:27.192Z,87.98
2023-02-23T07:09:30.651Z,87.78
2023-02-23T07:10:34.992Z,87.83
2023-02-23T07:11:36.989Z,87.56
2023-02-23T07:12:39.949Z,86.86
2023-02-23T07:13:42.479Z,87.34
2023-02-23T07:14:45.260Z,87.31
2023-02-23T07:15:47.436Z,87.09
2023-02-23T07:16:50.152Z,86.59
2023-02-23T07:17:53.109Z,86.38
2023-02-23T07:18:56.635Z,86.50
2023-02-23T07:19:59.401Z,86.33
2023-02-23T07:21:02.572Z,86.15
2023-02-23T07:22:05.838Z,86.44
2023-02-23T07:23:07.713Z,86.36
2023-02-23T07:24:10.612Z,85.46
2023-02-23T07:25:13.741Z,85.73
2023-02-23T07:26:17.016Z,85.29
2023-02-23T07:27:19.746Z,85.48
2023-02-23T07:28:21.777Z,85.41
2023-02-23T07:29:25.012Z,85.25
2023-02-23T07:30:26.886Z,85.74
2023-02-23T07:31:30.239Z,84.96
2023-02-23T07:32:32.206Z,84.64
2023-02-23T07:33:35.105Z,84.61
2023-02-23T07:34:38.288Z,84.55
2023-02-23T07:35:40.056Z,84.81
2023-02-23T07:36:44.189Z,84.64
2023-02-23T07:37:46.432Z,84.38
2023-02-23T07:38:49.235Z,83.91
2023-02-23T07:39:51.030Z,83.71
2023-02-23T07:40:54.701Z,83.25
2023-02-23T07:41:56.655Z,82.81
2023-02-23T07:42:59.464Z,82.55
2023-02-23T07:44:01.483Z,83.19
2023-02-23T07:45:04.672Z,82.78
2023-02-23T07:46:06.451Z,82.53
2023-02-23T07:47:09.594Z,82.85
2023-02-23T07:48:12.367Z,83.00
2023-02-23T07:49:14.172Z,82.37
2023-02-23T07:50:17.255Z,82.36
2023-02-23T07:51:19.380Z,81.90
2023-02-23T07:52:23.623Z,82.22
2023-02-23T07:53:27.842Z,81.93
2023-02-23T07:54:30.704Z,81.84
2023-02-23T07:55:32.506Z,81.93
2023-02-23T07:56:35.390Z,82.39
2023-02-23T07:57:39.518Z,82.46
2023-02-23T07:58:42.971Z,82.33
2023-02-23T07:59:46.129Z,81.40
2023-02-23T08:00:48.880Z,81.88
2023-02-23T08:01:51.730Z,81.31
2023-02-23T08:02:54.925Z,81.51
2023-02-23T08:03:56.742Z,81.36
2023-02-23T08:04:59.530Z,81.24
2023-02-23T08:06:01.392Z,81.30
2023-02-23T08:07:04.350Z,80.53
2023-02-23T08:08:07.468Z,80.53
2023-02-23T08:09:11.969Z,80.21
2023-02-23T08:10:13.967Z,80.16
2023-02-23T08:11:17.094Z,80.15
2023-02-23T08:12:20.549Z,80.00
2023-02-23T08:13:23.297Z,79.91
2023-02-23T08:14:25.284Z,80.04
2023-02-23T08:15:28.197Z,80.20
2023-02-23T08:16:31.000Z,79.92
2023-02-23T08:17:33.737Z,79.84
2023-02-23T08:18:35.658Z,80.11
2023-02-23T08:19:38.489Z,79.95
2023-02-23T08:20:41.263Z,79.78
2023-02-23T08:21:43.414Z,79.67
2023-02-23T08:22:49.640Z,79.63
2023-02-23T08:23:54.176Z,79.41
2023-02-23T08:24:56.331Z,79.07
2023-02-23T08:25:59.596Z,78.91
2023-02-23T08:27:02.901Z,79.23
2023-02-23T08:28:06.816Z,79.14
2023-02-23T08:29:09.880Z,78.94
2023-02-23T08:30:14.183Z,78.70
2023-02-23T08:31:19.443Z,78.93
2023-02-23T08:32:22.530Z,78.87
2023-02-23T08:33:25.368Z,78.47
2023-02-23T08:34:27.272Z,78.49
2023-02-23T08:35:31.076Z,78.41
2023-02-23T08:36:34.189Z,78.26
2023-02-23T08:37:36.341Z,78.53
2023-02-23T08:38:39.168Z,78.12
2023-02-23T08:39:44.108Z,78.42
2023-02-23T08:40:46.014Z,77.89
2023-02-23T08:41:48.842Z,77.52
2023-02-23T08:42:51.983Z,77.69
2023-02-23T08:43:54.819Z,77.53
2023-02-23T08:44:57.616Z,77.66
2023-02-23T08:45:59.367Z,77.28
2023-02-23T08:47:04.525Z,77.30
2023-02-23T08:48:06.861Z,76.83
2023-02-23T08:49:11.503Z,76.70
2023-02-23T08:50:14.090Z,77.36
2023-02-23T08:51:17.162Z,76.73
2023-02-23T08:52:19.371Z,76.64
2023-02-23T08:53:23.112Z,76.56
2023-02-23T08:54:25.152Z,76.50
2023-02-23T08:55:29.255Z,76.03
2023-02-23T08:56:31.854Z,76.55
2023-02-23T08:57:35.337Z,75.87
2023-02-23T08:58:37.352Z,76.34
2023-02-23T08:59:59.035Z,76.81
2023-02-23T09:01:02.607Z,76.05
2023-02-23T09:02:04.813Z,75.97
2023-02-23T09:03:08.053Z,75.87
2023-02-23T09:04:10.811Z,75.91
2023-02-23T09:05:12.602Z,75.19
2023-02-23T09:06:18.420Z,75.38
2023-02-23T09:07:23.506Z,75.58
2023-02-23T09:08:26.358Z,75.45
2023-02-23T09:09:28.189Z,74.91
2023-02-23T09:10:33.497Z,75.83
2023-02-23T09:11:35.334Z,75.27
2023-02-23T09:12:38.140Z,75.43
2023-02-23T09:13:40.892Z,75.12
2023-02-23T09:14:43.613Z,75.29
2023-02-23T09:15:45.510Z,75.02
2023-02-23T09:16:48.527Z,74.80
2023-02-23T09:17:50.308Z,75.05
2023-02-23T09:18:53.345Z,74.90
2023-02-23T09:19:55.181Z,74.03
2023-02-23T09:20:58.157Z,73.54
2023-02-23T09:22:00.033Z,72.77
2023-02-23T09:23:02.946Z,73.00
2023-02-23T09:24:05.288Z,72.84
2023-02-23T09:25:10.400Z,73.05
2023-02-23T09:26:14.553Z,72.38
2023-02-23T09:27:17.320Z,72.76
2023-02-23T09:28:40.453Z,72.47
2023-02-23T09:29:44.812Z,73.26
2023-02-23T09:30:46.942Z,72.92
2023-02-23T09:31:52.860Z,72.25
2023-02-23T09:32:56.480Z,73.01
2023-02-23T09:34:00.332Z,71.98
2023-02-23T09:35:02.344Z,71.71
2023-02-23T09:36:07.470Z,72.55
2023-02-23T09:37:10.196Z,72.90
2023-02-23T09:38:12.036Z,73.00
2023-02-23T09:39:14.887Z,72.28
2023-02-23T09:40:19.271Z,70.82
2023-02-23T09:42:00.278Z,72.04
2023-02-23T09:43:07.628Z,71.45
2023-02-23T09:44:15.924Z,71.59
2023-02-23T09:45:25.848Z,71.73
2023-02-23T09:46:34.850Z,71.02
2023-02-23T09:47:44.971Z,71.23
2023-02-23T09:48:46.807Z,71.13
2023-02-23T09:50:16.471Z,70.94
2023-02-23T09:51:22.111Z,70.74
2023-02-23T09:52:29.521Z,70.34
2023-02-23T09:53:36.263Z,70.63
2023-02-23T09:54:38.077Z,69.82
2023-02-23T09:55:42.153Z,69.81
2023-02-23T09:56:45.746Z,69.16
2023-02-23T09:57:50.558Z,68.96
2023-02-23T09:58:54.714Z,69.83
2023-02-23T09:59:56.503Z,69.85
2023-02-23T10:01:12.398Z,70.07
2023-02-23T10:02:24.753Z,70.25
2023-02-23T10:03:28.372Z,69.72
2023-02-23T10:04:32.553Z,69.39
2023-02-23T10:05:39.838Z,69.73
2023-02-23T10:06:46.683Z,69.25
2023-02-23T10:07:52.511Z,69.11
2023-02-23T10:09:07.171Z,70.14
2023-02-23T10:10:21.207Z,69.90
2023-02-23T10:11:31.070Z,69.68
2023-02-23T10:12:36.888Z,69.44
2023-02-23T10:13:45.839Z,68.58
2023-02-23T10:15:01.687Z,68.51
2023-02-23T10:16:09.973Z,69.03
2023-02-23T10:17:20.163Z,69.02
2023-02-23T10:18:45.370Z,68.79
2023-02-23T10:19:53.942Z,69.58
2023-02-23T10:21:00.844Z,69.11
2023-02-23T10:22:04.774Z,67.48
2023-02-23T10:23:11.931Z,67.09
2023-02-23T10:24:19.489Z,68.37
2023-02-23T10:25:25.685Z,68.48
2023-02-23T10:26:31.937Z,67.87
2023-02-23T10:27:40.598Z,67.04
2023-02-23T10:28:44.547Z,66.77
2023-02-23T10:29:51.187Z,66.23
2023-02-23T10:30:56.949Z,66.15
2023-02-23T10:32:02.071Z,65.29
2023-02-23T10:33:08.614Z,67.04
2023-02-23T10:34:13.539Z,67.05
2023-02-23T10:35:19.267Z,67.34
2023-02-23T10:36:30.602Z,66.92
2023-02-23T10:37:33.395Z,67.34
2023-02-23T10:38:35.292Z,66.97
2023-02-23T10:39:38.145Z,66.67
2023-02-23T10:40:42.430Z,67.19
2023-02-23T10:41:44.509Z,67.55
2023-02-23T10:42:47.313Z,67.31
2023-02-23T10:43:49.206Z,66.09
2023-02-23T10:44:51.996Z,66.02
2023-02-23T10:45:56.442Z,65.08
2023-02-23T10:47:00.992Z,66.19
2023-02-23T10:48:06.879Z,65.29
2023-02-23T10:49:12.525Z,65.08
2023-02-23T10:50:15.403Z,65.17
2023-02-23T10:51:20.597Z,66.42
2023-02-23T10:52:28.643Z,66.41
2023-02-23T10:53:35.578Z,66.16
2023-02-23T10:54:47.415Z,65.81
2023-02-23T10:56:03.334Z,64.83
2023-02-23T10:57:07.286Z,64.47
2023-02-23T10:58:17.166Z,64.96
2023-02-23T10:59:21.077Z,65.87
2023-02-23T11:00:30.472Z,65.61
2023-02-23T11:01:43.787Z,64.91
2023-02-23T11:02:48.290Z,62.84
2023-02-23T11:04:05.414Z,64.59
2023-02-23T11:05:29.037Z,63.64
2023-02-23T11:06:33.710Z,63.96
2023-02-23T11:07:35.464Z,65.05
2023-02-23T11:08:39.522Z,65.39
2023-02-23T11:09:47.182Z,64.40
2023-02-23T11:10:58.872Z,64.02
2023-02-23T11:12:03.646Z,64.37
2023-02-23T11:13:06.456Z,63.13
2023-02-23T11:14:17.860Z,63.28
2023-02-23T11:15:46.485Z,63.15
2023-02-23T11:16:54.768Z,62.80
2023-02-23T11:17:58.127Z,62.82
2023-02-23T11:19:02.235Z,62.91
2023-02-23T11:20:06.912Z,62.77
2023-02-23T11:21:12.009Z,62.31
2023-02-23T11:22:22.255Z,62.69
2023-02-23T11:23:28.991Z,62.88
2023-02-23T11:24:35.339Z,61.81
2023-02-23T11:25:38.642Z,61.96
2023-02-23T11:26:43.443Z,62.59
2023-02-23T11:27:47.436Z,62.58
2023-02-23T11:28:52.665Z,62.22
2023-02-23T11:30:14.508Z,63.12
2023-02-23T11:31:19.930Z,62.89
2023-02-23T11:32:28.764Z,62.32
2023-02-23T11:33:35.718Z,62.79
2023-02-23T11:34:40.767Z,62.85
2023-02-23T11:35:42.665Z,63.12
2023-02-23T11:36:45.421Z,62.03
2023-02-23T11:37:47.530Z,61.31
2023-02-23T11:39:01.922Z,61.67
2023-02-23T11:40:20.596Z,61.43
2023-02-23T11:41:25.026Z,61.46
2023-02-23T11:42:33.455Z,60.99
2023-02-23T11:43:36.860Z,61.11
2023-02-23T11:44:38.732Z,61.13
2023-02-23T11:45:47.100Z,61.76
2023-02-23T11:46:50.692Z,61.37
2023-02-23T11:47:56.754Z,61.83
2023-02-23T11:49:01.504Z,61.63
2023-02-23T11:50:04.535Z,61.14
2023-02-23T11:51:07.680Z,61.41
2023-02-23T11:52:15.256Z,61.79
2023-02-23T11:53:19.788Z,60.88
2023-02-23T11:54:26.254Z,60.93
2023-02-23T11:55:30.351Z,60.46
2023-02-23T11:56:34.637Z,60.59
2023-02-23T11:57:36.600Z,60.27
2023-02-23T11:58:40.477Z,60.02
2023-02-23T11:59:46.685Z,59.86
2023-02-23T12:00:58.091Z,59.69
2023-02-23T12:02:07.501Z,60.48
2023-02-23T12:03:17.729Z,61.10
2023-02-23T12:04:31.298Z,61.22
2023-02-23T12:05:34.913Z,61.12
2023-02-23T12:06:39.573Z,61.19
2023-02-23T12:07:47.141Z,60.90
2023-02-23T12:08:52.292Z,60.17
2023-02-23T12:10:00.338Z,60.27
2023-02-23T12:11:25.634Z,59.92
2023-02-23T12:12:29.892Z,60.57
2023-02-23T12:13:36.376Z,61.43
2023-02-23T12:14:41.502Z,61.56
2023-02-23T12:15:49.718Z,61.11
2023-02-23T12:16:55.986Z,61.23
2023-02-23T12:18:01.408Z,61.27
2023-02-23T12:19:09.286Z,61.19
2023-02-23T12:20:16.494Z,61.05
2023-02-23T12:21:28.637Z,60.84
2023-02-23T12:22:33.938Z,61.23
2023-02-23T12:23:37.943Z,60.71
2023-02-23T12:24:45.296Z,61.45
2023-02-23T12:25:51.783Z,61.43
2023-02-23T12:26:55.768Z,61.46
2023-02-23T12:28:18.108Z,60.55
2023-02-23T12:29:24.594Z,60.20
2023-02-23T12:30:33.271Z,61.09
2023-02-23T12:31:40.507Z,60.68
2023-02-23T12:32:47.813Z,60.94
2023-02-23T12:33:55.060Z,60.26
2023-02-23T12:35:02.405Z,60.71
2023-02-23T12:36:14.321Z,61.31
2023-02-23T12:37:28.937Z,61.09
2023-02-23T12:38:39.866Z,60.39
2023-02-23T12:39:44.649Z,59.68
2023-02-23T12:40:48.029Z,58.75
2023-02-23T12:41:57.702Z,58.41
2023-02-23T12:43:04.274Z,58.50
2023-02-23T12:44:15.382Z,58.44
2023-02-23T12:45:22.641Z,59.50
2023-02-23T12:46:27.740Z,59.79
2023-02-23T12:47:34.311Z,59.09
2023-02-23T12:48:43.307Z,59.30
2023-02-23T12:49:50.248Z,58.97
2023-02-23T12:50:56.504Z,58.79
2023-02-23T12:52:02.102Z,59.55
2023-02-23T12:53:12.373Z,59.88
2023-02-23T12:54:16.593Z,60.01
2023-02-23T12:55:25.754Z,60.55
2023-02-23T12:56:36.990Z,60.29
2023-02-23T12:57:44.839Z,60.62
2023-02-23T12:58:52.186Z,60.09
2023-02-23T13:00:30.929Z,60.05
2023-02-23T13:01:37.923Z,60.18
2023-02-23T13:02:43.237Z,60.39
2023-02-23T13:04:04.972Z,60.24
2023-02-23T13:05:16.822Z,59.88
2023-02-23T13:06:30.342Z,59.14
2023-02-23T13:07:41.972Z,60.15
2023-02-23T13:09:00.177Z,59.68
2023-02-23T13:10:12.948Z,58.80
2023-02-23T13:11:22.358Z,59.08
2023-02-23T13:12:31.840Z,59.54
2023-02-23T13:13:38.470Z,59.67
2023-02-23T13:14:44.452Z,58.46
2023-02-23T13:15:57.303Z,59.29
2023-02-23T13:17:04.075Z,59.33
2023-02-23T13:18:11.137Z,59.50
2023-02-23T13:19:18.592Z,59.79
2023-02-23T13:20:25.395Z,59.71
2023-02-23T13:21:31.807Z,59.99
2023-02-23T13:22:37.961Z,59.84
2023-02-23T13:23:44.261Z,59.38
2023-02-23T13:24:47.977Z,59.49
2023-02-23T13:25:57.522Z,59.39
2023-02-23T13:27:02.473Z,59.39
2023-02-23T13:28:04.892Z,59.68
2023-02-23T13:29:12.107Z,59.93
2023-02-23T13:30:16.380Z,59.28
2023-02-23T13:31:24.687Z,60.28
2023-02-23T13:32:29.281Z,60.23
2023-02-23T13:33:43.645Z,59.40
2023-02-23T13:34:52.434Z,59.88
2023-02-23T13:35:54.316Z,60.06
2023-02-23T13:37:00.174Z,60.46
2023-02-23T13:38:09.696Z,60.42
2023-02-23T13:39:37.140Z,59.94
2023-02-23T13:40:45.463Z,60.42
2023-02-23T13:41:52.271Z,61.11
2023-02-23T13:43:06.887Z,60.84
2023-02-23T13:44:15.911Z,60.95
2023-02-23T13:45:27.642Z,61.05
2023-02-23T13:46:39.867Z,61.22
2023-02-23T13:47:49.056Z,61.17
2023-02-23T13:48:59.302Z,60.03
2023-02-23T13:50:05.571Z,59.97
2023-02-23T13:51:15.096Z,61.37
2023-02-23T13:52:29.250Z,60.90
2023-02-23T13:53:39.855Z,60.31
2023-02-23T13:54:53.365Z,60.32
2023-02-23T13:55:59.019Z,61.09
2023-02-23T13:57:03.941Z,59.99
2023-02-23T13:58:10.706Z,59.94
2023-02-23T13:59:18.801Z,59.95
2023-02-23T14:00:21.736Z,60.53
2023-02-23T14:01:28.810Z,60.42
2023-02-23T14:02:39.007Z,60.44
2023-02-23T14:03:54.530Z,60.53
2023-02-23T14:04:57.545Z,60.56
2023-02-23T14:06:01.996Z,60.76
2023-02-23T14:07:06.429Z,60.59
2023-02-23T14:08:21.673Z,60.44
2023-02-23T14:09:29.165Z,60.92
2023-02-23T14:10:37.418Z,60.76
2023-02-23T14:11:49.122Z,60.88
2023-02-23T14:13:05.655Z,61.10
2023-02-23T14:14:11.070Z,60.58
2023-02-23T14:15:41.375Z,60.73
2023-02-23T14:16:46.445Z,61.08
2023-02-23T14:18:22.186Z,61.60
2023-02-23T14:19:37.372Z,61.64
2023-02-23T14:20:46.634Z,61.75
2023-02-23T14:21:52.369Z,61.51
2023-02-23T14:23:17.412Z,60.55